< < Back
Terminal Aerodrome Forecast


Current Version              Previous Versions:   1  2  3  4  5  6  7  8  9  

Terminal Aerodrome Forecast

176
FTUS42 KCHS 192000 AAA
TAFCHS
TAF AMD
KCHS 192023Z 1920/2018 24013G20KT P6SM VCTS SCT035CB SCT060 BKN150
     FM200400 25006KT P6SM SCT025 SCT120
     FM201300 29009KT P6SM SCT040 SCT150=



Latest METAR

383
SAUS80 KWBC 200700 RRA
MTRCHS
METAR KCHS 200656Z 26007KT 10SM CLR 25/23 A2990 RMK AO2 SLP125
T02500228


USA.gov is the U.S. government's official web portal to all federal, state and local government web resources and services.